sensor_id;sensor_type;location;lat;lon;timestamp;pressure;altitude;pressure_sealevel;temperature;humidity
71948;BME280;63257;55.082;38.772;2022-10-16T00:01:22;101174.16;;;7.61;54.18
71948;BME280;63257;55.082;38.772;2022-10-16T00:03:49;101168.25;;;7.50;54.03
71948;BME280;63257;55.082;38.772;2022-10-16T00:06:17;101200.31;;;7.66;54.30
71948;BME280;63257;55.082;38.772;2022-10-16T00:08:43;101185.63;;;7.57;54.14
71948;BME280;63257;55.082;38.772;2022-10-16T00:11:15;101195.22;;;7.60;54.09
71948;BME280;63257;55.082;38.772;2022-10-16T00:13:44;101185.72;;;7.51;54.45
71948;BME280;63257;55.082;38.772;2022-10-16T00:16:12;101185.13;;;7.38;54.54
71948;BME280;63257;55.082;38.772;2022-10-16T00:18:38;101191.31;;;7.36;54.42
71948;BME280;63257;55.082;38.772;2022-10-16T00:21:09;101207.16;;;7.31;54.59
71948;BME280;63257;55.082;38.772;2022-10-16T00:24:00;101202.97;;;7.21;55.04
71948;BME280;63257;55.082;38.772;2022-10-16T00:26:28;101200.78;;;6.97;54.89
71948;BME280;63257;55.082;38.772;2022-10-16T00:28:54;101183.50;;;6.86;55.87
71948;BME280;63257;55.082;38.772;2022-10-16T00:31:21;101212.31;;;6.89;55.92
71948;BME280;63257;55.082;38.772;2022-10-16T00:33:48;101204.63;;;6.78;56.38
71948;BME280;63257;55.082;38.772;2022-10-16T00:36:16;101210.97;;;6.65;56.09
71948;BME280;63257;55.082;38.772;2022-10-16T00:38:43;101188.47;;;6.51;56.40
71948;BME280;63257;55.082;38.772;2022-10-16T00:41:12;101205.19;;;6.44;56.83
71948;BME280;63257;55.082;38.772;2022-10-16T00:43:59;101220.00;;;6.47;56.35
71948;BME280;63257;55.082;38.772;2022-10-16T00:46:29;101187.25;;;6.18;56.50
71948;BME280;63257;55.082;38.772;2022-10-16T00:49:03;101219.41;;;6.31;56.73
71948;BME280;63257;55.082;38.772;2022-10-16T00:51:40;101225.56;;;6.25;57.27
71948;BME280;63257;55.082;38.772;2022-10-16T00:54:14;101199.69;;;6.03;57.14
71948;BME280;63257;55.082;38.772;2022-10-16T00:56:42;101204.03;;;6.06;57.23
71948;BME280;63257;55.082;38.772;2022-10-16T00:59:24;101223.25;;;6.05;57.56
71948;BME280;63257;55.082;38.772;2022-10-16T01:01:51;101217.25;;;5.95;57.81
71948;BME280;63257;55.082;38.772;2022-10-16T01:04:18;101218.22;;;5.89;57.85
71948;BME280;63257;55.082;38.772;2022-10-16T01:10:02;101227.03;;;5.81;58.29
71948;BME280;63257;55.082;38.772;2022-10-16T01:20:50;101231.63;;;5.63;59.24
71948;BME280;63257;55.082;38.772;2022-10-16T01:26:44;101236.97;;;5.55;59.09
71948;BME280;63257;55.082;38.772;2022-10-16T01:29:23;101223.13;;;5.46;59.35
71948;BME280;63257;55.082;38.772;2022-10-16T01:31:59;101239.63;;;5.51;59.88
71948;BME280;63257;55.082;38.772;2022-10-16T01:34:52;101239.66;;;5.49;59.78
71948;BME280;63257;55.082;38.772;2022-10-16T01:37:38;101227.59;;;5.36;59.59
71948;BME280;63257;55.082;38.772;2022-10-16T01:40:09;101243.22;;;5.42;59.74
71948;BME280;63257;55.082;38.772;2022-10-16T01:43:00;101247.59;;;5.43;59.80
71948;BME280;63257;55.082;38.772;2022-10-16T01:45:30;101244.16;;;5.38;60.09
71948;BME280;63257;55.082;38.772;2022-10-16T01:47:58;101238.13;;;5.30;60.45
71948;BME280;63257;55.082;38.772;2022-10-16T01:50:26;101232.97;;;5.23;59.78
71948;BME280;63257;55.082;38.772;2022-10-16T01:52:55;101250.38;;;5.28;60.59
71948;BME280;63257;55.082;38.772;2022-10-16T01:55:28;101253.00;;;5.24;60.38
71948;BME280;63257;55.082;38.772;2022-10-16T01:57:56;101248.72;;;5.17;60.53
71948;BME280;63257;55.082;38.772;2022-10-16T02:00:24;101260.88;;;5.23;60.75
71948;BME280;63257;55.082;38.772;2022-10-16T02:02:53;101259.16;;;5.20;60.45
71948;BME280;63257;55.082;38.772;2022-10-16T02:07:47;101252.34;;;5.07;60.88
71948;BME280;63257;55.082;38.772;2022-10-16T02:10:13;101264.50;;;5.11;61.35
71948;BME280;63257;55.082;38.772;2022-10-16T02:12:42;101251.50;;;5.02;61.04
71948;BME280;63257;55.082;38.772;2022-10-16T02:15:10;101260.28;;;4.96;60.92
71948;BME280;63257;55.082;38.772;2022-10-16T02:17:36;101267.16;;;5.05;61.30
71948;BME280;63257;55.082;38.772;2022-10-16T02:20:03;101267.22;;;5.00;61.25
71948;BME280;63257;55.082;38.772;2022-10-16T02:22:50;101269.84;;;4.99;61.31
71948;BME280;63257;55.082;38.772;2022-10-16T02:25:32;101262.97;;;4.85;61.59
71948;BME280;63257;55.082;38.772;2022-10-16T02:30:42;101276.94;;;4.84;62.06
71948;BME280;63257;55.082;38.772;2022-10-16T02:33:11;101291.75;;;4.85;62.00
71948;BME280;63257;55.082;38.772;2022-10-16T02:35:40;101284.81;;;4.83;61.95
71948;BME280;63257;55.082;38.772;2022-10-16T02:38:07;101288.28;;;4.82;62.25
71948;BME280;63257;55.082;38.772;2022-10-16T02:40:34;101275.22;;;4.80;62.16
71948;BME280;63257;55.082;38.772;2022-10-16T02:43:03;101282.22;;;4.76;62.09
71948;BME280;63257;55.082;38.772;2022-10-16T02:45:29;101279.66;;;4.70;62.65
71948;BME280;63257;55.082;38.772;2022-10-16T02:47:55;101284.00;;;4.73;62.49
71948;BME280;63257;55.082;38.772;2022-10-16T02:50:21;101290.97;;;4.74;62.54
71948;BME280;63257;55.082;38.772;2022-10-16T02:52:48;101285.75;;;4.71;62.99
71948;BME280;63257;55.082;38.772;2022-10-16T02:55:14;101267.53;;;4.62;62.89
71948;BME280;63257;55.082;38.772;2022-10-16T02:57:41;101281.44;;;4.64;62.51
71948;BME280;63257;55.082;38.772;2022-10-16T03:00:09;101283.22;;;4.63;63.45
71948;BME280;63257;55.082;38.772;2022-10-16T03:02:35;101270.19;;;4.55;62.83
71948;BME280;63257;55.082;38.772;2022-10-16T03:05:01;101288.47;;;4.62;63.23
71948;BME280;63257;55.082;38.772;2022-10-16T03:07:28;101291.97;;;4.59;63.23
71948;BME280;63257;55.082;38.772;2022-10-16T03:09:55;101287.63;;;4.56;63.31
71948;BME280;63257;55.082;38.772;2022-10-16T03:12:21;101291.09;;;4.55;63.55
71948;BME280;63257;55.082;38.772;2022-10-16T03:14:47;101280.66;;;4.54;62.98
71948;BME280;63257;55.082;38.772;2022-10-16T03:17:13;101279.81;;;4.49;63.40
71948;BME280;63257;55.082;38.772;2022-10-16T03:19:42;101296.34;;;4.52;63.82
71948;BME280;63257;55.082;38.772;2022-10-16T03:22:07;101291.19;;;4.43;63.85
71948;BME280;63257;55.082;38.772;2022-10-16T03:24:34;101274.72;;;4.32;64.15
71948;BME280;63257;55.082;38.772;2022-10-16T03:27:00;101298.19;;;4.38;64.60
71948;BME280;63257;55.082;38.772;2022-10-16T03:29:26;101306.03;;;4.36;64.41
71948;BME280;63257;55.082;38.772;2022-10-16T03:31:53;101280.88;;;4.18;65.13
71948;BME280;63257;55.082;38.772;2022-10-16T03:34:19;101307.78;;;4.31;64.93
71948;BME280;63257;55.082;38.772;2022-10-16T03:36:45;101299.16;;;4.20;65.16
71948;BME280;63257;55.082;38.772;2022-10-16T03:39:14;101319.16;;;4.25;65.60
71948;BME280;63257;55.082;38.772;2022-10-16T03:41:40;101295.72;;;4.08;65.68
71948;BME280;63257;55.082;38.772;2022-10-16T03:44:05;101312.25;;;4.17;65.65
71948;BME280;63257;55.082;38.772;2022-10-16T03:46:31;101306.19;;;4.08;65.67
71948;BME280;63257;55.082;38.772;2022-10-16T03:48:57;101321.00;;;4.08;65.86
71948;BME280;63257;55.082;38.772;2022-10-16T03:51:23;101325.34;;;4.09;66.70
71948;BME280;63257;55.082;38.772;2022-10-16T03:53:49;101322.78;;;4.00;66.45
71948;BME280;63257;55.082;38.772;2022-10-16T03:56:15;101324.53;;;3.90;67.01
71948;BME280;63257;55.082;38.772;2022-10-16T03:58:42;101333.22;;;3.95;67.27
71948;BME280;63257;55.082;38.772;2022-10-16T04:01:07;101335.88;;;3.92;67.25
71948;BME280;63257;55.082;38.772;2022-10-16T04:03:33;101326.31;;;3.88;66.60
71948;BME280;63257;55.082;38.772;2022-10-16T04:05:59;101326.31;;;3.86;67.07
71948;BME280;63257;55.082;38.772;2022-10-16T04:08:25;101344.56;;;3.89;67.35
71948;BME280;63257;55.082;38.772;2022-10-16T04:10:51;101334.97;;;3.90;67.81
71948;BME280;63257;55.082;38.772;2022-10-16T04:13:17;101331.50;;;3.89;67.68
71948;BME280;63257;55.082;38.772;2022-10-16T04:15:44;101319.38;;;3.81;67.30
71948;BME280;63257;55.082;38.772;2022-10-16T04:18:10;101325.44;;;3.87;67.77
71948;BME280;63257;55.082;38.772;2022-10-16T04:20:36;101319.38;;;3.79;67.15
71948;BME280;63257;55.082;38.772;2022-10-16T04:23:02;101322.81;;;3.84;67.63
71948;BME280;63257;55.082;38.772;2022-10-16T04:25:28;101307.19;;;3.75;67.21
71948;BME280;63257;55.082;38.772;2022-10-16T04:27:54;101323.72;;;3.85;67.54
71948;BME280;63257;55.082;38.772;2022-10-16T04:30:21;101328.03;;;3.90;67.40
71948;BME280;63257;55.082;38.772;2022-10-16T04:32:53;101343.69;;;3.94;67.52
71948;BME280;63257;55.082;38.772;2022-10-16T04:35:20;101343.69;;;3.94;68.25
71948;BME280;63257;55.082;38.772;2022-10-16T04:37:46;101340.22;;;3.87;67.62
71948;BME280;63257;55.082;38.772;2022-10-16T04:40:13;101343.69;;;3.95;67.87
71948;BME280;63257;55.082;38.772;2022-10-16T04:42:39;101341.06;;;3.95;67.98
71948;BME280;63257;55.082;38.772;2022-10-16T04:45:06;101337.59;;;3.93;67.87
71948;BME280;63257;55.082;38.772;2022-10-16T04:47:32;101336.72;;;3.93;67.84
71948;BME280;63257;55.082;38.772;2022-10-16T04:49:58;101335.84;;;3.95;68.43
71948;BME280;63257;55.082;38.772;2022-10-16T04:52:29;101329.75;;;3.95;67.79
71948;BME280;63257;55.082;38.772;2022-10-16T04:54:58;101348.03;;;4.04;67.86
71948;BME280;63257;55.082;38.772;2022-10-16T04:57:28;101352.38;;;4.02;67.93
71948;BME280;63257;55.082;38.772;2022-10-16T04:59:54;101345.41;;;4.04;68.42
71948;BME280;63257;55.082;38.772;2022-10-16T05:02:19;101339.28;;;4.05;68.27
71948;BME280;63257;55.082;38.772;2022-10-16T05:04:45;101324.53;;;3.95;68.19
71948;BME280;63257;55.082;38.772;2022-10-16T05:07:11;101327.13;;;3.99;68.06
71948;BME280;63257;55.082;38.772;2022-10-16T05:09:37;101347.13;;;4.11;68.35
71948;BME280;63257;55.082;38.772;2022-10-16T05:12:03;101333.19;;;4.06;67.89
71948;BME280;63257;55.082;38.772;2022-10-16T05:14:29;101351.41;;;4.20;68.29
71948;BME280;63257;55.082;38.772;2022-10-16T05:16:56;101349.66;;;4.27;68.03
71948;BME280;63257;55.082;38.772;2022-10-16T05:19:28;101338.34;;;4.28;68.14
71948;BME280;63257;55.082;38.772;2022-10-16T05:21:57;101324.44;;;4.19;67.65
71948;BME280;63257;55.082;38.772;2022-10-16T05:24:24;101347.88;;;4.35;67.44
71948;BME280;63257;55.082;38.772;2022-10-16T05:26:50;101352.16;;;4.44;66.68
71948;BME280;63257;55.082;38.772;2022-10-16T05:29:17;101355.63;;;4.53;66.76
71948;BME280;63257;55.082;38.772;2022-10-16T05:31:43;101346.06;;;4.51;66.27
71948;BME280;63257;55.082;38.772;2022-10-16T05:34:09;101354.72;;;4.59;65.98
71948;BME280;63257;55.082;38.772;2022-10-16T05:36:43;101363.38;;;4.70;66.04
71948;BME280;63257;55.082;38.772;2022-10-16T05:39:11;101334.69;;;4.55;65.77
71948;BME280;63257;55.082;38.772;2022-10-16T05:41:37;101319.88;;;4.54;65.35
71948;BME280;63257;55.082;38.772;2022-10-16T05:44:06;101328.50;;;4.67;64.90
71948;BME280;63257;55.082;38.772;2022-10-16T05:46:35;101310.25;;;4.61;64.44
71948;BME280;63257;55.082;38.772;2022-10-16T05:49:01;101344.13;;;4.82;64.34
71948;BME280;63257;55.082;38.772;2022-10-16T05:51:27;101337.09;;;4.86;63.82
71948;BME280;63257;55.082;38.772;2022-10-16T05:53:53;101348.34;;;4.96;63.42
71948;BME280;63257;55.082;38.772;2022-10-16T05:56:19;101327.50;;;4.85;63.40
71948;BME280;63257;55.082;38.772;2022-10-16T05:58:45;101346.56;;;5.02;63.02
71948;BME280;63257;55.082;38.772;2022-10-16T06:01:14;101337.78;;;5.11;63.15
71948;BME280;63257;55.082;38.772;2022-10-16T06:03:44;101341.25;;;5.13;62.87
71948;BME280;63257;55.082;38.772;2022-10-16T06:06:15;101348.16;;;5.23;62.69
71948;BME280;63257;55.082;38.772;2022-10-16T06:08:59;101327.25;;;5.17;62.28
71948;BME280;63257;55.082;38.772;2022-10-16T06:11:28;101346.34;;;5.32;62.39
71948;BME280;63257;55.082;38.772;2022-10-16T06:14:02;101325.41;;;5.29;61.73
71948;BME280;63257;55.082;38.772;2022-10-16T06:16:33;101364.41;;;5.59;61.49
71948;BME280;63257;55.082;38.772;2022-10-16T06:19:00;101367.75;;;5.71;61.42
71948;BME280;63257;55.082;38.772;2022-10-16T06:21:27;101339.13;;;5.55;61.11
71948;BME280;63257;55.082;38.772;2022-10-16T06:23:54;101333.91;;;5.52;60.32
71948;BME280;63257;55.082;38.772;2022-10-16T06:26:30;101347.81;;;5.57;60.50
71948;BME280;63257;55.082;38.772;2022-10-16T06:28:58;101407.66;;;6.01;60.01
71948;BME280;63257;55.082;38.772;2022-10-16T06:31:30;101339.94;;;5.59;60.58
71948;BME280;63257;55.082;38.772;2022-10-16T06:33:59;101346.06;;;5.59;60.14
71948;BME280;63257;55.082;38.772;2022-10-16T06:36:26;101346.81;;;5.69;60.99
71948;BME280;63257;55.082;38.772;2022-10-16T06:38:52;101401.41;;;6.11;60.36
71948;BME280;63257;55.082;38.772;2022-10-16T06:41:20;101345.84;;;5.78;59.87
71948;BME280;63257;55.082;38.772;2022-10-16T06:43:47;101370.97;;;6.01;58.92
71948;BME280;63257;55.082;38.772;2022-10-16T06:46:19;101355.31;;;5.91;59.52
71948;BME280;63257;55.082;38.772;2022-10-16T06:48:45;101375.16;;;6.17;59.86
71948;BME280;63257;55.082;38.772;2022-10-16T06:51:17;101398.53;;;6.34;58.93
71948;BME280;63257;55.082;38.772;2022-10-16T06:53:56;101385.47;;;6.31;59.24
71948;BME280;63257;55.082;38.772;2022-10-16T06:56:27;101362.78;;;6.27;59.54
71948;BME280;63257;55.082;38.772;2022-10-16T06:58:54;101346.22;;;6.23;59.27
71948;BME280;63257;55.082;38.772;2022-10-16T07:01:25;101355.66;;;6.37;58.30
71948;BME280;63257;55.082;38.772;2022-10-16T07:04:01;101385.97;;;6.58;58.80
71948;BME280;63257;55.082;38.772;2022-10-16T07:07:05;101409.19;;;6.87;58.31
71948;BME280;63257;55.082;38.772;2022-10-16T07:09:47;101362.34;;;6.61;58.10
71948;BME280;63257;55.082;38.772;2022-10-16T07:13:32;101409.75;;;7.09;57.50
71948;BME280;63257;55.082;38.772;2022-10-16T07:16:29;101365.50;;;6.83;57.12
71948;BME280;63257;55.082;38.772;2022-10-16T07:24:16;101356.59;;;6.93;57.01
71948;BME280;63257;55.082;38.772;2022-10-16T07:30:20;101390.66;;;7.51;56.71
71948;BME280;63257;55.082;38.772;2022-10-16T07:32:46;101369.97;;;7.33;56.02
71948;BME280;63257;55.082;38.772;2022-10-16T07:35:17;101376.53;;;7.58;55.64
71948;BME280;63257;55.082;38.772;2022-10-16T07:37:46;101366.09;;;7.54;55.49
71948;BME280;63257;55.082;38.772;2022-10-16T07:40:17;101390.19;;;7.79;55.09
71948;BME280;63257;55.082;38.772;2022-10-16T07:43:57;101409.19;;;7.93;54.85
71948;BME280;63257;55.082;38.772;2022-10-16T07:47:07;101409.72;;;8.11;55.10
71948;BME280;63257;55.082;38.772;2022-10-16T07:50:09;101383.56;;;8.03;54.63
71948;BME280;63257;55.082;38.772;2022-10-16T07:52:47;101366.13;;;7.99;54.63
71948;BME280;63257;55.082;38.772;2022-10-16T07:55:13;101400.75;;;8.21;54.04
71948;BME280;63257;55.082;38.772;2022-10-16T07:57:39;101401.44;;;8.29;54.04
71948;BME280;63257;55.082;38.772;2022-10-16T08:00:11;101401.41;;;8.32;53.58
71948;BME280;63257;55.082;38.772;2022-10-16T08:02:41;101381.16;;;8.36;53.79
71948;BME280;63257;55.082;38.772;2022-10-16T08:05:07;101408.56;;;8.70;54.22
71948;BME280;63257;55.082;38.772;2022-10-16T08:07:34;101403.28;;;8.70;53.70
71948;BME280;63257;55.082;38.772;2022-10-16T08:10:01;101400.44;;;8.79;53.53
71948;BME280;63257;55.082;38.772;2022-10-16T08:12:28;101403.06;;;8.79;52.26
71948;BME280;63257;55.082;38.772;2022-10-16T08:14:54;101393.38;;;8.81;52.52
71948;BME280;63257;55.082;38.772;2022-10-16T08:17:20;101414.16;;;8.93;52.28
71948;BME280;63257;55.082;38.772;2022-10-16T08:19:48;101400.78;;;9.01;52.35
71948;BME280;63257;55.082;38.772;2022-10-16T08:22:14;101412.09;;;9.06;51.32
71948;BME280;63257;55.082;38.772;2022-10-16T08:24:40;101415.44;;;9.13;51.88
71948;BME280;63257;55.082;38.772;2022-10-16T08:27:07;101379.59;;;9.07;52.34
71948;BME280;63257;55.082;38.772;2022-10-16T08:29:36;101403.50;;;9.34;52.34
71948;BME280;63257;55.082;38.772;2022-10-16T08:32:04;101413.84;;;9.43;51.01
71948;BME280;63257;55.082;38.772;2022-10-16T08:34:30;101414.72;;;9.44;49.66
71948;BME280;63257;55.082;38.772;2022-10-16T08:36:56;101380.81;;;9.28;49.81
71948;BME280;63257;55.082;38.772;2022-10-16T08:39:25;101377.16;;;9.36;49.55
71948;BME280;63257;55.082;38.772;2022-10-16T08:42:01;101370.09;;;9.36;49.78
71948;BME280;63257;55.082;38.772;2022-10-16T08:50:37;101372.38;;;9.50;48.45
71948;BME280;63257;55.082;38.772;2022-10-16T08:53:05;101378.50;;;9.52;48.28
71948;BME280;63257;55.082;38.772;2022-10-16T08:55:42;101372.34;;;9.51;48.55
71948;BME280;63257;55.082;38.772;2022-10-16T08:58:15;101373.75;;;9.65;47.98
71948;BME280;63257;55.082;38.772;2022-10-16T09:00:44;101385.00;;;9.72;48.41
71948;BME280;63257;55.082;38.772;2022-10-16T09:03:54;101340.63;;;9.55;47.87
71948;BME280;63257;55.082;38.772;2022-10-16T09:12:28;101347.00;;;9.79;47.66
71948;BME280;63257;55.082;38.772;2022-10-16T09:15:07;101354.75;;;9.85;47.50
71948;BME280;63257;55.082;38.772;2022-10-16T09:17:52;101359.84;;;9.91;47.21
71948;BME280;63257;55.082;38.772;2022-10-16T09:20:42;101365.91;;;9.95;47.48
71948;BME280;63257;55.082;38.772;2022-10-16T09:23:22;101374.03;;;10.18;47.29
71948;BME280;63257;55.082;38.772;2022-10-16T09:25:51;101338.41;;;10.04;46.51
71948;BME280;63257;55.082;38.772;2022-10-16T09:28:20;101365.16;;;10.21;46.10
71948;BME280;63257;55.082;38.772;2022-10-16T09:30:46;101379.06;;;10.28;46.19
71948;BME280;63257;55.082;38.772;2022-10-16T09:33:18;101395.31;;;10.44;45.98
71948;BME280;63257;55.082;38.772;2022-10-16T09:35:47;101338.88;;;10.18;46.27
71948;BME280;63257;55.082;38.772;2022-10-16T09:41:01;101332.81;;;10.14;45.77
71948;BME280;63257;55.082;38.772;2022-10-16T09:43:40;101387.88;;;10.58;46.11
71948;BME280;63257;55.082;38.772;2022-10-16T09:46:09;101354.09;;;10.40;45.97
71948;BME280;63257;55.082;38.772;2022-10-16T09:48:50;101333.13;;;10.35;45.13
71948;BME280;63257;55.082;38.772;2022-10-16T09:51:38;101349.16;;;10.57;45.36
71948;BME280;63257;55.082;38.772;2022-10-16T09:56:35;101315.44;;;10.37;44.82
71948;BME280;63257;55.082;38.772;2022-10-16T09:59:18;101345.91;;;10.49;44.80
71948;BME280;63257;55.082;38.772;2022-10-16T10:01:52;101356.19;;;10.58;44.84
71948;BME280;63257;55.082;38.772;2022-10-16T10:04:23;101380.94;;;10.82;44.72
71948;BME280;63257;55.082;38.772;2022-10-16T10:06:58;101338.44;;;10.63;44.43
71948;BME280;63257;55.082;38.772;2022-10-16T10:09:33;101326.47;;;10.51;44.48
71948;BME280;63257;55.082;38.772;2022-10-16T10:12:06;101340.69;;;10.74;44.78
71948;BME280;63257;55.082;38.772;2022-10-16T10:14:47;101359.00;;;10.80;44.13
71948;BME280;63257;55.082;38.772;2022-10-16T10:17:27;101323.63;;;10.58;44.31
71948;BME280;63257;55.082;38.772;2022-10-16T10:19:57;101341.53;;;10.76;44.06
71948;BME280;63257;55.082;38.772;2022-10-16T10:28:00;101371.09;;;11.16;43.29
71948;BME280;63257;55.082;38.772;2022-10-16T10:30:58;101361.19;;;11.23;43.48
71948;BME280;63257;55.082;38.772;2022-10-16T10:39:19;101346.47;;;11.14;43.30
71948;BME280;63257;55.082;38.772;2022-10-16T10:44:54;101362.75;;;11.53;43.56
71948;BME280;63257;55.082;38.772;2022-10-16T10:56:56;101362.34;;;11.66;42.90
71948;BME280;63257;55.082;38.772;2022-10-16T11:04:49;101295.69;;;11.31;42.83
71948;BME280;63257;55.082;38.772;2022-10-16T11:07:30;101335.03;;;11.65;42.54
71948;BME280;63257;55.082;38.772;2022-10-16T11:10:12;101306.63;;;11.45;42.49
71948;BME280;63257;55.082;38.772;2022-10-16T11:12:42;101337.13;;;11.56;42.55
71948;BME280;63257;55.082;38.772;2022-10-16T11:15:30;101302.69;;;11.32;42.45
71948;BME280;63257;55.082;38.772;2022-10-16T11:18:10;101305.78;;;11.45;42.65
71948;BME280;63257;55.082;38.772;2022-10-16T11:20:42;101313.06;;;11.63;43.05
71948;BME280;63257;55.082;38.772;2022-10-16T11:26:00;101354.25;;;11.96;41.97
71948;BME280;63257;55.082;38.772;2022-10-16T11:29:01;101364.47;;;12.52;41.12
71948;BME280;63257;55.082;38.772;2022-10-16T11:31:46;101354.84;;;12.73;40.50
71948;BME280;63257;55.082;38.772;2022-10-16T11:34:43;101340.16;;;12.87;40.27
71948;BME280;63257;55.082;38.772;2022-10-16T11:37:38;101326.00;;;12.88;38.83
71948;BME280;63257;55.082;38.772;2022-10-16T11:40:29;101308.63;;;12.81;39.21
71948;BME280;63257;55.082;38.772;2022-10-16T11:43:13;101322.91;;;12.77;39.33
71948;BME280;63257;55.082;38.772;2022-10-16T11:45:53;101338.25;;;13.33;39.05
71948;BME280;63257;55.082;38.772;2022-10-16T11:51:43;101340.59;;;13.82;37.84
71948;BME280;63257;55.082;38.772;2022-10-16T11:54:33;101338.56;;;13.68;37.70
71948;BME280;63257;55.082;38.772;2022-10-16T11:57:09;101312.69;;;13.53;37.18
71948;BME280;63257;55.082;38.772;2022-10-16T12:00:27;101352.00;;;13.64;37.90
71948;BME280;63257;55.082;38.772;2022-10-16T12:05:44;101312.91;;;13.88;37.34
71948;BME280;63257;55.082;38.772;2022-10-16T12:08:22;101298.47;;;13.74;36.93
71948;BME280;63257;55.082;38.772;2022-10-16T12:11:20;101308.63;;;14.23;36.35
71948;BME280;63257;55.082;38.772;2022-10-16T12:13:50;101312.47;;;14.35;35.78
71948;BME280;63257;55.082;38.772;2022-10-16T12:16:20;101326.91;;;14.49;35.66
71948;BME280;63257;55.082;38.772;2022-10-16T12:18:48;101286.06;;;14.13;35.69
71948;BME280;63257;55.082;38.772;2022-10-16T12:21:16;101294.69;;;14.37;35.53
71948;BME280;63257;55.082;38.772;2022-10-16T12:23:51;101294.25;;;14.47;35.08
71948;BME280;63257;55.082;38.772;2022-10-16T12:26:36;101291.44;;;14.69;35.28
71948;BME280;63257;55.082;38.772;2022-10-16T12:29:28;101302.63;;;14.75;35.16
71948;BME280;63257;55.082;38.772;2022-10-16T12:31:58;101272.84;;;14.50;34.84
71948;BME280;63257;55.082;38.772;2022-10-16T12:34:38;101322.34;;;14.89;34.83
71948;BME280;63257;55.082;38.772;2022-10-16T12:37:37;101323.09;;;15.10;34.82
71948;BME280;63257;55.082;38.772;2022-10-16T12:40:41;101291.59;;;14.83;34.04
71948;BME280;63257;55.082;38.772;2022-10-16T12:43:44;101315.69;;;14.61;34.82
71948;BME280;63257;55.082;38.772;2022-10-16T12:52:51;101289.13;;;14.61;34.57
71948;BME280;63257;55.082;38.772;2022-10-16T12:55:23;101265.09;;;14.45;34.13
71948;BME280;63257;55.082;38.772;2022-10-16T13:07:02;101300.22;;;14.88;34.70
71948;BME280;63257;55.082;38.772;2022-10-16T13:09:55;101292.78;;;14.78;35.02
71948;BME280;63257;55.082;38.772;2022-10-16T13:23:13;101301.75;;;14.19;35.29
71948;BME280;63257;55.082;38.772;2022-10-16T13:28:40;101306.47;;;14.51;35.17
71948;BME280;63257;55.082;38.772;2022-10-16T13:31:21;101296.94;;;14.28;35.16
71948;BME280;63257;55.082;38.772;2022-10-16T13:33:57;101297.94;;;14.25;35.60
71948;BME280;63257;55.082;38.772;2022-10-16T13:41:03;101311.84;;;13.92;36.98
71948;BME280;63257;55.082;38.772;2022-10-16T13:43:56;101300.22;;;13.95;37.32
71948;BME280;63257;55.082;38.772;2022-10-16T13:46:24;101292.50;;;13.69;37.04
71948;BME280;63257;55.082;38.772;2022-10-16T13:49:17;101296.94;;;13.28;38.77
71948;BME280;63257;55.082;38.772;2022-10-16T13:51:58;101298.75;;;12.62;40.26
71948;BME280;63257;55.082;38.772;2022-10-16T13:54:54;101302.53;;;12.11;41.38
71948;BME280;63257;55.082;38.772;2022-10-16T13:57:24;101277.44;;;11.74;42.17
71948;BME280;63257;55.082;38.772;2022-10-16T14:00:21;101304.38;;;11.60;42.74
71948;BME280;63257;55.082;38.772;2022-10-16T14:03:00;101258.66;;;11.06;44.10
71948;BME280;63257;55.082;38.772;2022-10-16T14:05:52;101306.88;;;11.12;44.53
71948;BME280;63257;55.082;38.772;2022-10-16T14:08:23;101269.56;;;10.69;45.76
71948;BME280;63257;55.082;38.772;2022-10-16T14:10:57;101277.81;;;10.59;45.41
71948;BME280;63257;55.082;38.772;2022-10-16T14:13:44;101247.19;;;10.25;46.28
71948;BME280;63257;55.082;38.772;2022-10-16T14:16:23;101309.84;;;10.48;47.12
71948;BME280;63257;55.082;38.772;2022-10-16T14:19:02;101310.34;;;10.31;47.12
71948;BME280;63257;55.082;38.772;2022-10-16T14:21:31;101287.13;;;10.12;47.00
71948;BME280;63257;55.082;38.772;2022-10-16T14:24:32;101293.47;;;10.07;47.53
71948;BME280;63257;55.082;38.772;2022-10-16T14:27:29;101259.53;;;9.64;48.42
71948;BME280;63257;55.082;38.772;2022-10-16T14:30:15;101316.06;;;9.85;49.02
71948;BME280;63257;55.082;38.772;2022-10-16T14:32:59;101305.34;;;9.59;49.84
71948;BME280;63257;55.082;38.772;2022-10-16T14:35:38;101263.19;;;9.27;49.61
71948;BME280;63257;55.082;38.772;2022-10-16T14:38:18;101285.03;;;9.31;48.87
71948;BME280;63257;55.082;38.772;2022-10-16T14:40:49;101301.63;;;9.34;49.06
71948;BME280;63257;55.082;38.772;2022-10-16T14:43:34;101307.94;;;9.29;49.10
71948;BME280;63257;55.082;38.772;2022-10-16T14:46:02;101259.47;;;9.02;49.63
71948;BME280;63257;55.082;38.772;2022-10-16T14:48:33;101269.25;;;8.96;49.69
71948;BME280;63257;55.082;38.772;2022-10-16T14:51:11;101322.84;;;9.28;50.32
71948;BME280;63257;55.082;38.772;2022-10-16T14:53:42;101324.88;;;9.19;50.48
71948;BME280;63257;55.082;38.772;2022-10-16T14:56:20;101287.09;;;8.85;50.83
71948;BME280;63257;55.082;38.772;2022-10-16T14:58:50;101270.97;;;8.63;52.04
71948;BME280;63257;55.082;38.772;2022-10-16T15:01:20;101299.66;;;8.74;51.87
71948;BME280;63257;55.082;38.772;2022-10-16T15:03:50;101296.56;;;8.56;51.88
71948;BME280;63257;55.082;38.772;2022-10-16T15:06:22;101263.66;;;8.37;52.24
71948;BME280;63257;55.082;38.772;2022-10-16T15:08:48;101314.97;;;8.56;53.06
71948;BME280;63257;55.082;38.772;2022-10-16T15:11:16;101284.75;;;8.33;53.06
71948;BME280;63257;55.082;38.772;2022-10-16T15:13:46;101307.56;;;8.33;52.89
71948;BME280;63257;55.082;38.772;2022-10-16T15:16:18;101307.56;;;8.33;53.11
71948;BME280;63257;55.082;38.772;2022-10-16T15:18:50;101344.97;;;8.47;52.99